Time;durP1;ratioP1;P1;durP2;ratioP2;P2;SDS_P1;SDS_P2;PMS_P1;PMS_P2;Temp;Humidity;BMP_temperature;BMP_pressure;BME280_temperature;BME280_humidity;BME280_pressure;Samples;Min_cycle;Max_cycle;Signal;HPM_P1;HPM_P2
2021/01/22 00:01:12;;;;;;;3.47;1.80;;;9.50;99.90;;;;;;477786;247;27941;-71
2021/01/22 00:03:13;;;;;;;3.83;1.83;;;9.50;99.90;;;;;;477754;247;28126;-71
2021/01/22 00:05:14;;;;;;;2.27;1.70;;;9.50;99.90;;;;;;478158;245;27994;-72
2021/01/22 00:07:16;;;;;;;2.10;1.90;;;9.50;99.90;;;;;;493529;240;27940;-73
2021/01/22 00:09:17;;;;;;;1.50;1.40;;;9.50;99.90;;;;;;475872;250;27964;-71
2021/01/22 00:11:18;;;;;;;2.00;1.80;;;9.60;99.90;;;;;;475834;250;28045;-72
2021/01/22 00:13:19;;;;;;;3.43;1.80;;;9.60;99.90;;;;;;475878;249;28093;-71
2021/01/22 00:15:21;;;;;;;1.70;1.60;;;9.60;99.90;;;;;;475853;249;27994;-73
2021/01/22 00:17:22;;;;;;;1.43;1.37;;;9.60;99.90;;;;;;475838;250;28004;-72
2021/01/22 00:19:23;;;;;;;1.80;1.57;;;9.50;99.90;;;;;;475806;250;27967;-71
2021/01/22 00:21:24;;;;;;;2.97;1.60;;;9.50;99.90;;;;;;475772;249;28041;-74
2021/01/22 00:23:27;;;;;;;1.73;1.60;;;9.60;99.90;;;;;;475687;249;27906;-72
2021/01/22 00:25:27;;;;;;;3.17;1.73;;;9.50;99.90;;;;;;476220;249;27958;-72
2021/01/22 00:27:28;;;;;;;2.93;1.53;;;9.50;99.90;;;;;;476263;250;27618;-72
2021/01/22 00:29:30;;;;;;;1.60;1.50;;;9.50;99.90;;;;;;475904;249;28117;-72
2021/01/22 00:31:31;;;;;;;1.70;1.53;;;9.50;99.90;;;;;;475839;249;27861;-71
2021/01/22 00:33:32;;;;;;;3.00;1.60;;;9.50;99.90;;;;;;475902;249;28112;-72
2021/01/22 00:35:33;;;;;;;3.33;1.40;;;9.50;99.90;;;;;;475871;249;28008;-72
2021/01/22 00:37:35;;;;;;;1.73;1.40;;;9.50;99.90;;;;;;475947;249;27938;-72
2021/01/22 00:39:36;;;;;;;3.40;1.50;;;9.50;99.90;;;;;;475967;249;27898;-74
2021/01/22 00:41:37;;;;;;;2.47;1.87;;;9.50;99.90;;;;;;475887;249;27821;-71
2021/01/22 00:43:38;;;;;;;1.47;1.37;;;9.40;99.90;;;;;;475828;249;28678;-72
2021/01/22 00:45:40;;;;;;;2.10;1.40;;;9.40;99.90;;;;;;475849;249;28525;-72
2021/01/22 00:47:41;;;;;;;3.37;1.63;;;9.40;99.90;;;;;;475855;249;28421;-71
2021/01/22 00:49:42;;;;;;;1.57;1.40;;;9.40;99.90;;;;;;475910;249;28701;-73
2021/01/22 00:51:43;;;;;;;1.30;1.20;;;9.40;99.90;;;;;;475854;249;28520;-71
2021/01/22 00:53:45;;;;;;;1.50;1.40;;;9.40;99.90;;;;;;475869;249;27957;-72
2021/01/22 00:55:46;;;;;;;2.40;2.10;;;9.30;99.90;;;;;;475867;250;27838;-71
2021/01/22 00:57:47;;;;;;;6.20;1.73;;;9.20;99.90;;;;;;475881;250;27709;-71
2021/01/22 00:59:48;;;;;;;3.77;1.60;;;9.20;99.90;;;;;;476084;249;27654;-74
2021/01/22 01:01:50;;;;;;;2.90;1.60;;;9.20;99.90;;;;;;476005;250;28064;-72
2021/01/22 01:03:51;;;;;;;4.13;1.77;;;9.10;99.90;;;;;;475982;248;27547;-72
2021/01/22 01:05:52;;;;;;;5.10;1.63;;;9.10;99.90;;;;;;475916;249;27971;-71
2021/01/22 01:07:53;;;;;;;1.73;1.63;;;9.10;99.90;;;;;;475871;249;27655;-71
2021/01/22 01:09:55;;;;;;;1.97;1.57;;;9.00;99.90;;;;;;475900;249;28391;-74
2021/01/22 01:11:56;;;;;;;2.87;1.63;;;9.00;99.90;;;;;;475834;250;27919;-71
2021/01/22 01:13:57;;;;;;;2.23;1.50;;;9.00;99.90;;;;;;475861;249;27885;-71
2021/01/22 01:15:58;;;;;;;3.67;2.27;;;8.90;99.90;;;;;;475864;249;28102;-73
2021/01/22 01:18:00;;;;;;;4.53;1.77;;;9.00;99.90;;;;;;475854;249;28089;-72
2021/01/22 01:20:02;;;;;;;1.40;1.30;;;8.90;99.90;;;;;;475839;250;28006;-72
2021/01/22 01:22:02;;;;;;;1.93;1.73;;;8.90;99.90;;;;;;475802;249;28430;-71
2021/01/22 01:24:03;;;;;;;5.47;1.70;;;8.90;99.90;;;;;;475892;249;28954;-71
2021/01/22 01:26:05;;;;;;;2.30;1.53;;;8.90;99.90;;;;;;475959;248;28468;-73
2021/01/22 01:28:06;;;;;;;4.00;1.50;;;8.80;99.90;;;;;;475977;250;28277;-72
2021/01/22 01:30:07;;;;;;;5.20;1.90;;;8.90;99.90;;;;;;475910;248;28476;-71
2021/01/22 01:32:08;;;;;;;2.70;1.60;;;8.80;99.90;;;;;;475881;250;27878;-72
2021/01/22 01:34:10;;;;;;;1.63;1.53;;;8.80;99.90;;;;;;475832;249;27987;-71
2021/01/22 01:36:11;;;;;;;3.17;1.80;;;8.80;99.90;;;;;;475821;249;27923;-72
2021/01/22 01:38:12;;;;;;;2.13;1.60;;;8.80;99.90;;;;;;475789;250;28007;-72
2021/01/22 01:40:13;;;;;;;4.00;1.90;;;8.90;99.90;;;;;;475789;250;27888;-71
2021/01/22 01:42:14;;;;;;;2.77;1.70;;;8.90;99.90;;;;;;475822;249;27641;-72
2021/01/22 01:44:16;;;;;;;4.33;2.20;;;8.80;99.90;;;;;;475905;249;28039;-71
2021/01/22 01:46:17;;;;;;;5.37;1.93;;;8.90;99.90;;;;;;475850;249;28034;-71
2021/01/22 01:48:18;;;;;;;2.27;1.80;;;8.90;99.90;;;;;;475864;249;27981;-73
2021/01/22 01:50:19;;;;;;;3.37;1.70;;;8.90;99.90;;;;;;475789;249;27635;-71
2021/01/22 01:52:21;;;;;;;4.27;2.10;;;8.90;99.90;;;;;;475875;250;28261;-72
2021/01/22 01:54:22;;;;;;;3.70;2.03;;;9.00;99.90;;;;;;475881;250;27829;-71
2021/01/22 01:56:23;;;;;;;7.60;2.10;;;9.00;99.90;;;;;;475853;249;28067;-71
2021/01/22 01:58:25;;;;;;;8.53;1.93;;;8.90;99.90;;;;;;475832;249;27655;-72
2021/01/22 02:00:26;;;;;;;11.20;2.30;;;9.00;99.90;;;;;;475827;250;28238;-72
2021/01/22 02:02:27;;;;;;;4.83;2.00;;;9.00;99.90;;;;;;475887;250;28396;-73
2021/01/22 02:04:28;;;;;;;6.97;2.27;;;9.00;99.90;;;;;;475807;250;28532;-70
2021/01/22 02:06:29;;;;;;;9.40;2.33;;;9.10;99.90;;;;;;475727;249;28515;-71
2021/01/22 02:08:31;;;;;;;3.00;2.20;;;9.10;99.90;;;;;;475792;250;28180;-73
2021/01/22 02:10:32;;;;;;;3.33;2.03;;;9.20;99.90;;;;;;475821;250;27660;-72
2021/01/22 02:12:33;;;;;;;6.83;2.20;;;9.10;99.90;;;;;;476019;249;28468;-72
2021/01/22 02:14:34;;;;;;;7.97;2.37;;;9.20;99.90;;;;;;476036;249;28048;-72
2021/01/22 02:16:36;;;;;;;9.77;1.80;;;9.20;99.90;;;;;;476023;250;28138;-72
2021/01/22 02:18:37;;;;;;;4.67;1.93;;;9.20;99.90;;;;;;476019;250;27753;-71
2021/01/22 02:20:38;;;;;;;4.63;1.97;;;9.20;99.90;;;;;;475978;249;27933;-71
2021/01/22 02:22:39;;;;;;;3.30;2.00;;;9.20;99.90;;;;;;476015;249;28160;-73
2021/01/22 02:24:41;;;;;;;5.40;2.90;;;9.30;99.90;;;;;;475998;249;28063;-71
2021/01/22 02:26:42;;;;;;;3.63;2.00;;;9.30;99.90;;;;;;475939;249;28084;-72
2021/01/22 02:28:43;;;;;;;4.43;1.80;;;9.40;99.90;;;;;;475858;249;28279;-72
2021/01/22 02:30:44;;;;;;;6.13;2.53;;;9.30;99.90;;;;;;475835;250;27999;-72
2021/01/22 02:32:46;;;;;;;4.97;1.90;;;9.30;99.90;;;;;;475891;250;28039;-73
2021/01/22 02:34:47;;;;;;;6.07;2.10;;;9.30;99.90;;;;;;475882;249;27716;-71
2021/01/22 02:36:48;;;;;;;3.87;1.80;;;9.40;99.90;;;;;;475849;250;28001;-72
2021/01/22 02:38:49;;;;;;;2.93;1.63;;;9.40;99.90;;;;;;475868;250;28552;-72
2021/01/22 02:40:51;;;;;;;5.17;2.00;;;9.40;99.90;;;;;;475838;249;28424;-72
2021/01/22 02:42:52;;;;;;;5.80;2.80;;;9.40;99.90;;;;;;475896;249;28518;-73
2021/01/22 02:44:53;;;;;;;4.10;2.10;;;9.40;99.90;;;;;;475889;249;30294;-71
2021/01/22 02:46:56;;;;;;;4.73;1.90;;;9.40;99.90;;;;;;475841;249;28093;-72
2021/01/22 02:48:56;;;;;;;4.93;2.03;;;9.30;99.90;;;;;;475744;250;28006;-72
2021/01/22 02:50:57;;;;;;;4.87;1.97;;;9.40;99.90;;;;;;475778;249;27950;-72
2021/01/22 02:52:58;;;;;;;4.40;2.40;;;9.40;99.90;;;;;;475865;249;27962;-72
2021/01/22 02:54:59;;;;;;;6.10;2.53;;;9.40;99.90;;;;;;475877;249;28104;-73
2021/01/22 02:57:01;;;;;;;5.77;2.10;;;9.40;99.90;;;;;;475847;249;27875;-72
2021/01/22 02:59:02;;;;;;;5.10;2.07;;;9.40;99.90;;;;;;475821;249;27989;-73
2021/01/22 03:01:03;;;;;;;4.53;2.27;;;9.30;99.90;;;;;;475772;249;28123;-71
2021/01/22 03:03:05;;;;;;;4.60;2.10;;;9.40;99.90;;;;;;475849;250;28118;-72
2021/01/22 03:05:06;;;;;;;4.00;1.87;;;9.30;99.90;;;;;;475907;250;27984;-72
2021/01/22 03:07:07;;;;;;;7.10;2.47;;;9.40;99.90;;;;;;475948;249;27731;-71
2021/01/22 03:09:08;;;;;;;3.37;1.77;;;9.30;99.90;;;;;;475980;249;28048;-72
2021/01/22 03:11:09;;;;;;;5.73;2.30;;;9.30;99.90;;;;;;475871;249;28121;-72
2021/01/22 03:13:11;;;;;;;6.37;1.93;;;9.40;99.90;;;;;;475863;249;27955;-71
2021/01/22 03:15:12;;;;;;;3.90;2.10;;;9.30;99.90;;;;;;475881;250;27781;-72
2021/01/22 03:17:13;;;;;;;6.10;1.90;;;9.30;99.90;;;;;;475852;249;28482;-72
2021/01/22 03:19:14;;;;;;;3.60;2.13;;;9.30;99.90;;;;;;475772;250;28544;-72
2021/01/22 03:21:16;;;;;;;3.97;1.77;;;9.30;99.90;;;;;;475796;249;28573;-71
2021/01/22 03:23:17;;;;;;;5.13;1.97;;;9.30;99.90;;;;;;475831;249;28445;-71
2021/01/22 03:25:18;;;;;;;8.20;2.20;;;9.30;99.90;;;;;;475891;249;28666;-72
2021/01/22 03:27:19;;;;;;;7.80;2.30;;;9.30;99.90;;;;;;475877;249;27867;-71
2021/01/22 03:29:21;;;;;;;5.03;1.73;;;9.30;99.90;;;;;;475867;249;27999;-72
2021/01/22 03:31:22;;;;;;;7.10;1.83;;;9.20;99.90;;;;;;475874;249;27995;-73
2021/01/22 03:33:23;;;;;;;6.43;1.73;;;9.20;99.90;;;;;;475951;249;27949;-71
2021/01/22 03:35:24;;;;;;;3.70;1.77;;;9.10;99.90;;;;;;475954;249;27660;-72
2021/01/22 03:37:26;;;;;;;4.57;2.00;;;9.10;99.90;;;;;;475917;249;28105;-71
2021/01/22 03:39:27;;;;;;;5.20;1.80;;;9.00;99.90;;;;;;475906;250;28000;-73
2021/01/22 03:41:28;;;;;;;3.33;1.90;;;9.00;99.90;;;;;;475949;249;28032;-75
2021/01/22 03:43:29;;;;;;;4.87;1.97;;;9.00;99.90;;;;;;476008;249;27619;-71
2021/01/22 03:45:31;;;;;;;4.40;2.03;;;9.00;99.90;;;;;;476042;250;28003;-71
2021/01/22 03:47:32;;;;;;;4.63;2.10;;;9.00;99.90;;;;;;476002;249;28145;-72
2021/01/22 03:49:33;;;;;;;4.50;2.00;;;9.00;99.90;;;;;;475984;249;27741;-72
2021/01/22 03:51:34;;;;;;;6.43;2.13;;;9.00;99.90;;;;;;475927;249;28020;-73
2021/01/22 03:53:36;;;;;;;2.90;1.67;;;9.00;99.90;;;;;;475958;249;27725;-71
2021/01/22 03:55:37;;;;;;;6.33;1.90;;;9.00;99.90;;;;;;475905;249;28540;-71
2021/01/22 03:57:38;;;;;;;4.23;1.80;;;9.00;99.90;;;;;;475870;249;28422;-73
2021/01/22 03:59:39;;;;;;;3.80;1.77;;;9.00;99.90;;;;;;475884;249;28363;-71
2021/01/22 04:01:41;;;;;;;6.00;2.10;;;9.00;99.90;;;;;;475879;249;28524;-73
2021/01/22 04:03:42;;;;;;;10.50;1.97;;;9.00;99.90;;;;;;475892;249;28048;-72
2021/01/22 04:05:43;;;;;;;4.63;1.90;;;9.00;99.90;;;;;;475866;250;28146;-71
2021/01/22 04:07:44;;;;;;;3.20;2.00;;;8.90;99.90;;;;;;475866;250;28122;-72
2021/01/22 04:09:46;;;;;;;6.17;1.70;;;8.90;99.90;;;;;;475892;249;27876;-72
2021/01/22 04:11:47;;;;;;;4.60;1.90;;;8.90;99.90;;;;;;475823;249;28090;-72
2021/01/22 04:13:48;;;;;;;2.50;1.43;;;8.90;99.90;;;;;;475874;249;27958;-71
2021/01/22 04:15:49;;;;;;;5.30;1.90;;;8.90;99.90;;;;;;475853;249;28059;-71
2021/01/22 04:17:51;;;;;;;2.90;1.80;;;8.90;99.90;;;;;;475848;249;27976;-72
2021/01/22 04:19:52;;;;;;;7.87;1.93;;;8.90;99.90;;;;;;475812;249;28471;-72
2021/01/22 04:21:53;;;;;;;5.83;2.40;;;8.90;99.90;;;;;;475824;249;28602;-71
2021/01/22 04:23:54;;;;;;;2.63;1.67;;;8.80;99.90;;;;;;475859;250;28560;-73
2021/01/22 04:25:56;;;;;;;2.87;1.40;;;8.80;99.90;;;;;;475872;249;28560;-72
2021/01/22 04:27:57;;;;;;;7.60;2.10;;;8.70;99.90;;;;;;475900;249;28263;-72
2021/01/22 04:29:58;;;;;;;4.53;2.17;;;8.80;99.90;;;;;;475889;249;28061;-72
2021/01/22 04:31:59;;;;;;;4.17;2.40;;;8.80;99.90;;;;;;475932;249;27990;-71
2021/01/22 04:34:01;;;;;;;2.70;1.70;;;8.70;99.90;;;;;;475940;248;28082;-73
2021/01/22 04:36:02;;;;;;;5.53;1.80;;;8.60;99.90;;;;;;475889;249;27980;-73
2021/01/22 04:38:03;;;;;;;7.40;1.73;;;8.70;99.90;;;;;;476060;249;28065;-71
2021/01/22 04:40:04;;;;;;;2.73;1.63;;;8.70;99.90;;;;;;476019;249;27866;-72
2021/01/22 04:42:06;;;;;;;2.90;1.33;;;8.70;99.90;;;;;;476074;249;27952;-72
2021/01/22 04:44:07;;;;;;;4.03;1.60;;;8.70;99.90;;;;;;476046;250;27902;-73
2021/01/22 04:46:08;;;;;;;3.90;1.60;;;8.80;99.90;;;;;;475931;250;27999;-73
2021/01/22 04:48:09;;;;;;;3.37;2.20;;;8.80;99.90;;;;;;475847;249;28147;-72
2021/01/22 04:50:11;;;;;;;2.10;1.70;;;8.80;99.90;;;;;;475812;250;28005;-72
2021/01/22 04:52:12;;;;;;;6.43;1.57;;;8.80;99.90;;;;;;475880;249;27961;-71
2021/01/22 04:54:13;;;;;;;2.43;1.33;;;8.90;99.90;;;;;;475833;249;28004;-72
2021/01/22 04:56:14;;;;;;;4.97;1.90;;;8.80;99.90;;;;;;475816;250;28354;-73
2021/01/22 04:58:16;;;;;;;2.40;1.50;;;8.90;99.90;;;;;;475867;249;27994;-72
2021/01/22 05:00:17;;;;;;;3.83;1.80;;;8.90;99.90;;;;;;475853;249;27980;-73
2021/01/22 05:02:18;;;;;;;1.90;1.70;;;8.90;99.90;;;;;;475882;249;27957;-71
2021/01/22 05:04:19;;;;;;;6.87;5.83;;;8.90;99.90;;;;;;475872;249;27758;-71
2021/01/22 05:06:21;;;;;;;7.03;5.30;;;8.90;99.90;;;;;;475902;249;28237;-73
2021/01/22 05:08:22;;;;;;;4.00;1.90;;;8.90;99.90;;;;;;475858;249;28159;-72
2021/01/22 05:10:23;;;;;;;7.37;2.20;;;8.90;99.90;;;;;;475883;249;28230;-74
2021/01/22 05:12:24;;;;;;;3.17;2.07;;;9.00;99.90;;;;;;475880;248;27916;-72
2021/01/22 05:14:26;;;;;;;3.13;1.37;;;8.90;99.90;;;;;;475900;249;28020;-72
2021/01/22 05:16:27;;;;;;;9.10;1.73;;;9.00;99.90;;;;;;475935;249;27986;-73
2021/01/22 05:18:28;;;;;;;3.50;1.70;;;8.90;99.90;;;;;;475965;249;27708;-71
2021/01/22 05:20:29;;;;;;;4.70;1.53;;;8.90;99.90;;;;;;475981;249;28088;-72
2021/01/22 05:22:31;;;;;;;1.70;1.40;;;8.90;99.90;;;;;;475992;250;27933;-71
2021/01/22 05:24:34;;;;;;;2.80;1.50;;;8.90;99.90;;;;;;475951;249;27988;-71
2021/01/22 05:26:33;;;;;;;8.90;1.90;;;8.90;99.90;;;;;;475950;250;28413;-73
2021/01/22 05:28:34;;;;;;;3.77;1.53;;;8.80;99.90;;;;;;476076;249;28060;-72
2021/01/22 05:30:36;;;;;;;2.30;1.40;;;8.80;99.90;;;;;;476007;249;28517;-72
2021/01/22 05:32:37;;;;;;;4.27;1.57;;;8.70;99.90;;;;;;476004;249;28139;-71
2021/01/22 05:34:38;;;;;;;3.90;1.60;;;8.80;99.90;;;;;;476026;249;28504;-72
2021/01/22 05:36:39;;;;;;;3.73;1.77;;;8.70;99.90;;;;;;476018;249;28230;-73
2021/01/22 05:38:41;;;;;;;3.40;1.90;;;8.70;99.90;;;;;;475974;249;27951;-71
2021/01/22 05:40:42;;;;;;;3.37;1.77;;;8.60;99.90;;;;;;475887;249;27635;-72
2021/01/22 05:42:43;;;;;;;4.50;1.60;;;8.60;99.90;;;;;;475894;249;27699;-72
2021/01/22 05:44:44;;;;;;;2.60;1.60;;;8.60;99.90;;;;;;475848;249;27997;-72
2021/01/22 05:46:46;;;;;;;2.83;1.37;;;8.60;99.90;;;;;;475856;249;27896;-73
2021/01/22 05:48:47;;;;;;;3.17;1.73;;;8.60;99.90;;;;;;475888;249;27934;-71
2021/01/22 05:50:48;;;;;;;3.20;2.00;;;8.60;99.90;;;;;;475855;249;28169;-73
2021/01/22 05:52:49;;;;;;;5.33;1.80;;;8.60;99.90;;;;;;475871;249;28063;-71
2021/01/22 05:54:51;;;;;;;2.83;1.80;;;8.60;99.90;;;;;;475854;249;28093;-71
2021/01/22 05:56:52;;;;;;;2.60;1.40;;;8.60;99.90;;;;;;475826;249;28150;-72
2021/01/22 05:58:53;;;;;;;4.07;1.60;;;8.60;99.90;;;;;;475832;249;28009;-71
2021/01/22 06:00:54;;;;;;;4.07;2.33;;;8.60;99.90;;;;;;475825;249;27688;-72
2021/01/22 06:02:56;;;;;;;7.20;1.60;;;8.60;99.90;;;;;;475852;249;27974;-72
2021/01/22 06:04:57;;;;;;;1.90;1.43;;;8.50;99.90;;;;;;475840;249;28499;-72
2021/01/22 06:06:58;;;;;;;1.27;1.17;;;8.50;99.90;;;;;;475880;250;28658;-72
2021/01/22 06:08:59;;;;;;;1.80;1.37;;;8.50;99.90;;;;;;475875;250;28424;-71
2021/01/22 06:11:01;;;;;;;3.57;1.70;;;8.50;99.90;;;;;;475833;249;28487;-72
2021/01/22 06:13:02;;;;;;;3.07;1.77;;;8.50;99.90;;;;;;475911;249;28149;-72
2021/01/22 06:15:03;;;;;;;6.17;1.90;;;8.50;99.90;;;;;;475884;249;28039;-71
2021/01/22 06:17:05;;;;;;;5.70;1.70;;;8.50;99.90;;;;;;475912;249;27989;-71
2021/01/22 06:19:09;;;;;;;5.87;1.80;;;8.50;99.90;;;;;;475885;249;27871;-71
2021/01/22 06:21:07;;;;;;;5.37;1.53;;;8.40;99.90;;;;;;475756;250;27992;-71
2021/01/22 06:23:08;;;;;;;3.90;1.90;;;8.40;99.90;;;;;;475895;249;27989;-72
2021/01/22 06:25:09;;;;;;;4.53;2.27;;;8.40;99.90;;;;;;475867;249;28133;-73
2021/01/22 06:27:11;;;;;;;4.33;1.67;;;8.40;99.90;;;;;;475843;250;27959;-71
2021/01/22 06:29:12;;;;;;;4.60;1.60;;;8.40;99.90;;;;;;475815;249;27985;-71
2021/01/22 06:31:13;;;;;;;5.80;2.00;;;8.40;99.90;;;;;;475820;249;28049;-71
2021/01/22 06:33:14;;;;;;;4.23;1.70;;;8.40;99.90;;;;;;475835;249;27729;-71
2021/01/22 06:35:16;;;;;;;6.83;2.00;;;8.30;99.90;;;;;;475858;249;27997;-72
2021/01/22 06:37:17;;;;;;;4.53;2.10;;;8.30;99.90;;;;;;475866;250;28006;-71
2021/01/22 06:39:18;;;;;;;3.00;1.93;;;8.30;99.90;;;;;;475885;250;27676;-73
2021/01/22 06:41:19;;;;;;;5.10;2.03;;;8.30;99.90;;;;;;475848;250;27805;-71
2021/01/22 06:43:21;;;;;;;5.90;1.93;;;8.30;99.90;;;;;;475856;250;28477;-71
2021/01/22 06:45:22;;;;;;;7.70;2.50;;;8.30;99.90;;;;;;475828;250;28216;-72
2021/01/22 06:47:23;;;;;;;6.13;2.03;;;8.40;99.90;;;;;;475850;249;28404;-71
2021/01/22 06:49:24;;;;;;;9.83;2.00;;;8.40;99.90;;;;;;475938;249;28576;-72
2021/01/22 06:51:26;;;;;;;8.47;2.23;;;8.40;99.90;;;;;;475940;250;28733;-72
2021/01/22 06:53:27;;;;;;;8.13;2.20;;;8.40;99.90;;;;;;476022;249;28045;-70
2021/01/22 06:55:28;;;;;;;4.13;1.73;;;8.40;99.90;;;;;;476020;250;27935;-71
2021/01/22 06:57:29;;;;;;;6.47;2.30;;;8.40;99.90;;;;;;475974;249;27851;-71
2021/01/22 06:59:35;;;;;;;11.27;2.53;;;8.40;99.90;;;;;;475921;249;27989;-73
2021/01/22 07:01:32;;;;;;;6.47;1.60;;;8.30;99.90;;;;;;475616;250;27975;-71
2021/01/22 07:03:33;;;;;;;8.23;2.00;;;8.40;99.90;;;;;;475855;250;27965;-71
2021/01/22 07:05:35;;;;;;;6.60;2.10;;;8.40;99.90;;;;;;475827;249;28008;-71
2021/01/22 07:07:36;;;;;;;3.87;1.93;;;8.40;99.90;;;;;;475821;250;28006;-70
2021/01/22 07:09:37;;;;;;;7.93;2.13;;;8.30;99.90;;;;;;475864;250;28479;-73
2021/01/22 07:11:38;;;;;;;6.93;2.00;;;8.30;99.90;;;;;;475815;249;27833;-71
2021/01/22 07:13:42;;;;;;;8.63;2.20;;;8.30;99.90;;;;;;475864;249;27987;-71
2021/01/22 07:15:41;;;;;;;5.70;2.07;;;8.30;99.90;;;;;;475722;250;28000;-72
2021/01/22 07:17:42;;;;;;;8.87;2.10;;;8.20;99.90;;;;;;475834;249;27878;-71
2021/01/22 07:19:43;;;;;;;4.30;1.97;;;8.20;99.90;;;;;;475853;249;28371;-72
2021/01/22 07:21:46;;;;;;;6.47;2.00;;;8.30;99.90;;;;;;475843;249;27971;-71
2021/01/22 07:23:46;;;;;;;5.60;2.30;;;8.30;99.90;;;;;;475774;250;28305;-72
2021/01/22 07:25:47;;;;;;;6.20;2.13;;;8.30;99.90;;;;;;475826;249;27982;-71
2021/01/22 07:27:48;;;;;;;7.40;2.07;;;8.30;99.90;;;;;;475823;250;28076;-71
2021/01/22 07:29:49;;;;;;;6.50;1.80;;;8.30;99.90;;;;;;475859;249;28627;-72
2021/01/22 07:31:51;;;;;;;3.07;2.13;;;8.30;99.90;;;;;;475834;249;28570;-70
2021/01/22 07:33:52;;;;;;;4.47;2.43;;;8.30;99.90;;;;;;475880;249;28471;-71
2021/01/22 07:35:53;;;;;;;9.17;2.30;;;8.40;99.90;;;;;;475870;249;28351;-72
2021/01/22 07:37:54;;;;;;;7.97;2.30;;;8.40;99.90;;;;;;475887;249;28533;-71
2021/01/22 07:39:56;;;;;;;7.80;2.70;;;8.30;99.90;;;;;;475899;250;28794;-71
2021/01/22 07:41:57;;;;;;;9.03;4.00;;;8.30;99.90;;;;;;475909;250;27538;-72
2021/01/22 07:43:58;;;;;;;7.20;2.20;;;8.40;99.90;;;;;;475898;249;28118;-71
2021/01/22 07:45:59;;;;;;;5.07;2.40;;;8.30;99.90;;;;;;475873;248;27778;-72
2021/01/22 07:48:01;;;;;;;7.27;2.57;;;8.40;99.90;;;;;;475766;249;27633;-71
2021/01/22 07:50:02;;;;;;;7.27;2.30;;;8.40;99.90;;;;;;475842;249;27517;-71
2021/01/22 07:52:03;;;;;;;6.47;2.50;;;8.50;99.90;;;;;;475842;249;28088;-72
2021/01/22 07:54:04;;;;;;;16.70;2.70;;;8.50;99.90;;;;;;475854;249;28444;-72
2021/01/22 07:56:06;;;;;;;5.90;2.97;;;8.50;99.90;;;;;;475826;250;28119;-71
2021/01/22 07:58:07;;;;;;;8.80;2.40;;;8.60;99.90;;;;;;475869;250;28084;-71
2021/01/22 08:00:08;;;;;;;11.63;2.37;;;8.50;99.90;;;;;;475803;249;27939;-71
2021/01/22 08:02:09;;;;;;;3.17;2.30;;;8.50;99.90;;;;;;475833;249;27996;-71
2021/01/22 08:04:11;;;;;;;7.00;2.57;;;8.70;99.90;;;;;;475870;249;27989;-73
2021/01/22 08:06:12;;;;;;;9.40;2.70;;;8.60;99.90;;;;;;475843;250;28224;-71
2021/01/22 08:08:13;;;;;;;7.50;2.50;;;8.70;99.90;;;;;;475900;249;28546;-72
2021/01/22 08:10:14;;;;;;;4.00;1.87;;;8.70;99.90;;;;;;475840;249;29002;-71
2021/01/22 08:12:16;;;;;;;8.00;2.80;;;8.70;99.90;;;;;;475583;249;28730;-71
2021/01/22 08:14:17;;;;;;;4.67;2.50;;;8.70;99.90;;;;;;475338;249;28609;-71
2021/01/22 08:16:18;;;;;;;8.00;2.20;;;8.70;99.90;;;;;;475458;249;27989;-71
2021/01/22 08:18:19;;;;;;;12.10;2.40;;;8.80;99.90;;;;;;475886;249;27993;-74
2021/01/22 08:20:21;;;;;;;11.40;2.40;;;8.70;99.90;;;;;;476043;249;27932;-71
2021/01/22 08:22:22;;;;;;;8.30;2.47;;;8.70;99.90;;;;;;476045;249;28102;-71
2021/01/22 08:24:23;;;;;;;8.43;2.57;;;8.70;99.90;;;;;;476038;250;27895;-70
2021/01/22 08:26:26;;;;;;;6.10;2.17;;;8.80;99.90;;;;;;476006;249;28094;-71
2021/01/22 08:28:26;;;;;;;4.10;2.23;;;8.80;99.90;;;;;;475958;250;28004;-73
2021/01/22 08:30:27;;;;;;;6.43;2.23;;;8.80;99.90;;;;;;475968;250;28022;-71
2021/01/22 08:32:28;;;;;;;7.27;2.63;;;8.80;99.90;;;;;;475930;248;28005;-71
2021/01/22 08:34:29;;;;;;;7.90;2.40;;;8.70;99.90;;;;;;475905;249;27524;-72
2021/01/22 08:36:31;;;;;;;10.43;2.90;;;8.70;99.90;;;;;;475882;250;28041;-71
2021/01/22 08:38:32;;;;;;;9.07;2.97;;;8.70;99.90;;;;;;475900;249;28047;-73
2021/01/22 08:40:33;;;;;;;6.40;2.73;;;8.70;99.90;;;;;;475841;250;28509;-71
2021/01/22 08:42:36;;;;;;;7.33;2.67;;;8.70;99.90;;;;;;475853;250;28361;-72
2021/01/22 08:44:36;;;;;;;8.73;2.93;;;8.70;99.90;;;;;;475832;249;28562;-73
2021/01/22 08:46:37;;;;;;;9.10;2.90;;;8.70;99.90;;;;;;475883;249;28038;-71
2021/01/22 08:48:38;;;;;;;6.73;2.43;;;8.60;99.90;;;;;;475859;249;27992;-71
2021/01/22 08:50:39;;;;;;;9.83;3.10;;;8.60;99.90;;;;;;475811;249;27976;-71
2021/01/22 08:52:41;;;;;;;5.50;2.00;;;8.50;99.90;;;;;;475866;249;27974;-72
2021/01/22 08:54:42;;;;;;;15.07;3.30;;;8.40;99.90;;;;;;475863;249;28210;-71
2021/01/22 08:56:43;;;;;;;8.67;2.53;;;8.30;99.90;;;;;;475851;249;28120;-72
2021/01/22 08:58:44;;;;;;;5.90;2.50;;;8.30;99.90;;;;;;475817;249;28473;-71
2021/01/22 09:00:46;;;;;;;5.00;2.30;;;8.20;99.90;;;;;;475837;249;28542;-71
2021/01/22 09:02:47;;;;;;;5.27;2.33;;;8.20;99.90;;;;;;475908;249;28726;-73
2021/01/22 09:04:48;;;;;;;3.83;1.63;;;8.20;99.90;;;;;;475919;249;29115;-71
2021/01/22 09:06:49;;;;;;;3.80;1.33;;;8.00;99.90;;;;;;475903;249;28468;-71
2021/01/22 09:08:51;;;;;;;2.20;1.20;;;7.40;99.90;;;;;;475935;249;28482;-71
2021/01/22 09:10:52;;;;;;;1.87;1.50;;;6.80;99.90;;;;;;475825;249;27531;-72
2021/01/22 09:12:53;;;;;;;2.20;1.20;;;6.60;99.90;;;;;;475873;249;28001;-72
2021/01/22 09:14:54;;;;;;;0.80;0.80;;;6.50;99.90;;;;;;475937;250;28066;-71
2021/01/22 09:16:56;;;;;;;0.90;0.90;;;6.10;99.90;;;;;;475970;249;27520;-71
2021/01/22 09:18:57;;;;;;;1.20;1.20;;;5.90;99.90;;;;;;475873;249;27849;-71
2021/01/22 09:20:58;;;;;;;1.10;0.90;;;5.80;99.90;;;;;;475851;249;28341;-72
2021/01/22 09:22:59;;;;;;;0.95;0.90;;;5.70;99.90;;;;;;475839;249;28355;-71
2021/01/22 09:25:01;;;;;;;0.80;0.80;;;5.60;99.90;;;;;;475874;250;27526;-71
2021/01/22 09:27:02;;;;;;;2.50;1.20;;;5.40;99.90;;;;;;475833;249;28104;-71
2021/01/22 09:29:03;;;;;;;1.60;1.50;;;5.40;99.90;;;;;;475864;249;27568;-71
2021/01/22 09:31:04;;;;;;;1.00;1.00;;;5.40;99.90;;;;;;475807;249;27992;-70
2021/01/22 09:33:06;;;;;;;2.67;1.20;;;5.20;99.90;;;;;;475854;249;28084;-72
2021/01/22 09:35:07;;;;;;;1.30;1.20;;;5.10;99.90;;;;;;475841;249;27633;-70
2021/01/22 09:37:08;;;;;;;1.10;1.00;;;5.20;99.90;;;;;;475900;250;27560;-73
2021/01/22 09:39:09;;;;;;;0.82;0.82;;;5.30;99.90;;;;;;475858;250;27495;-71
2021/01/22 09:41:11;;;;;;;0.88;0.88;;;5.20;99.90;;;;;;475826;250;27561;-71
2021/01/22 09:43:15;;;;;;;1.50;0.90;;;5.20;99.90;;;;;;476002;250;28672;-71
2021/01/22 09:45:13;;;;;;;0.80;0.80;;;5.00;99.90;;;;;;475690;249;28451;-71
2021/01/22 09:47:15;;;;;;;0.82;0.82;;;4.80;99.90;;;;;;475541;250;27545;-73
2021/01/22 09:49:16;;;;;;;1.08;0.90;;;4.60;99.90;;;;;;475907;249;27476;-71
2021/01/22 09:51:17;;;;;;;1.10;1.05;;;4.70;99.90;;;;;;475999;249;27517;-71
2021/01/22 09:53:18;;;;;;;1.00;1.00;;;4.60;99.90;;;;;;476020;250;27490;-71
2021/01/22 09:55:20;;;;;;;1.40;1.30;;;4.30;99.90;;;;;;476037;249;27524;-70
2021/01/22 09:57:21;;;;;;;1.02;1.02;;;4.40;99.90;;;;;;475983;250;27982;-72
2021/01/22 09:59:22;;;;;;;1.10;1.00;;;4.40;99.90;;;;;;475946;250;27936;-70
2021/01/22 10:01:23;;;;;;;1.67;1.00;;;4.30;99.90;;;;;;475810;250;27621;-71
2021/01/22 10:03:25;;;;;;;1.00;0.90;;;4.20;99.90;;;;;;475899;249;27512;-71
2021/01/22 10:05:26;;;;;;;1.25;1.00;;;4.20;99.90;;;;;;475911;249;27696;-70
2021/01/22 10:07:27;;;;;;;1.15;1.05;;;4.10;99.90;;;;;;475914;249;27899;-72
2021/01/22 10:09:28;;;;;;;1.10;1.10;;;4.10;99.90;;;;;;475901;249;27557;-71
2021/01/22 10:11:30;;;;;;;1.12;1.02;;;4.20;99.90;;;;;;475815;249;27994;-70
2021/01/22 10:13:31;;;;;;;1.08;1.00;;;4.10;99.90;;;;;;475874;249;28060;-71
2021/01/22 10:15:32;;;;;;;1.02;1.00;;;4.10;99.90;;;;;;475886;249;27606;-70
2021/01/22 10:17:33;;;;;;;0.90;0.90;;;4.10;99.90;;;;;;475908;249;27641;-72
2021/01/22 10:19:35;;;;;;;1.00;1.00;;;4.00;99.90;;;;;;475866;248;27507;-70
2021/01/22 10:21:36;;;;;;;1.12;1.02;;;4.00;99.90;;;;;;475796;249;27527;-71
2021/01/22 10:23:37;;;;;;;1.98;1.00;;;4.10;99.90;;;;;;475833;249;27519;-70
2021/01/22 10:25:38;;;;;;;0.93;0.93;;;4.20;99.90;;;;;;475837;249;27518;-71
2021/01/22 10:27:40;;;;;;;1.00;1.00;;;4.10;99.90;;;;;;475847;249;28174;-71
2021/01/22 10:29:41;;;;;;;1.12;0.90;;;4.20;99.90;;;;;;475848;249;27996;-71
2021/01/22 10:31:42;;;;;;;1.20;1.10;;;4.20;99.90;;;;;;475722;248;28016;-71
2021/01/22 10:33:45;;;;;;;0.90;0.90;;;4.20;99.90;;;;;;475779;249;27544;-70
2021/01/22 10:35:45;;;;;;;0.98;0.95;;;4.30;99.90;;;;;;476137;250;27476;-71
2021/01/22 10:37:46;;;;;;;0.95;0.95;;;4.10;99.90;;;;;;476231;250;27528;-72
2021/01/22 10:39:47;;;;;;;1.30;1.20;;;4.10;99.90;;;;;;476240;249;27572;-72